sensor_id;sensor_type;location;lat;lon;timestamp;pressure;altitude;pressure_sealevel;temperature;humidity
61109;BME280;46995;55.740;37.402;2024-01-11T00:00:23;97759.81;;;-5.67;93.09
61109;BME280;46995;55.740;37.402;2024-01-11T00:02:49;97745.13;;;-5.65;92.73
61109;BME280;46995;55.740;37.402;2024-01-11T00:05:15;97731.38;;;-5.64;92.88
61109;BME280;46995;55.740;37.402;2024-01-11T00:07:40;97730.41;;;-5.61;92.40
61109;BME280;46995;55.740;37.402;2024-01-11T00:10:11;97719.22;;;-5.60;92.80
61109;BME280;46995;55.740;37.402;2024-01-11T00:12:39;97710.56;;;-5.59;92.37
61109;BME280;46995;55.740;37.402;2024-01-11T00:15:05;97695.91;;;-5.57;92.47
61109;BME280;46995;55.740;37.402;2024-01-11T00:17:31;97686.38;;;-5.55;92.39
61109;BME280;46995;55.740;37.402;2024-01-11T00:19:57;97664.75;;;-5.51;92.50
61109;BME280;46995;55.740;37.402;2024-01-11T00:22:22;97655.94;;;-5.47;93.00
61109;BME280;46995;55.740;37.402;2024-01-11T00:24:48;97658.34;;;-5.44;92.29
61109;BME280;46995;55.740;37.402;2024-01-11T00:27:14;97657.44;;;-5.43;92.81
61109;BME280;46995;55.740;37.402;2024-01-11T00:29:39;97627.28;;;-5.39;92.12
61109;BME280;46995;55.740;37.402;2024-01-11T00:32:05;97631.41;;;-5.37;92.88
61109;BME280;46995;55.740;37.402;2024-01-11T00:34:31;97631.22;;;-5.34;92.76
61109;BME280;46995;55.740;37.402;2024-01-11T00:36:56;97595.06;;;-5.31;92.53
61109;BME280;46995;55.740;37.402;2024-01-11T00:39:22;97605.38;;;-5.31;92.55
61109;BME280;46995;55.740;37.402;2024-01-11T00:41:48;97617.06;;;-5.25;92.75
61109;BME280;46995;55.740;37.402;2024-01-11T00:44:14;97600.41;;;-5.18;92.35
61109;BME280;46995;55.740;37.402;2024-01-11T00:46:39;97590.59;;;-5.12;92.72
61109;BME280;46995;55.740;37.402;2024-01-11T00:49:06;97588.44;;;-5.03;92.21
61109;BME280;46995;55.740;37.402;2024-01-11T00:51:32;97578.63;;;-4.97;93.00
61109;BME280;46995;55.740;37.402;2024-01-11T00:53:58;97567.25;;;-4.93;92.92
61109;BME280;46995;55.740;37.402;2024-01-11T00:56:23;97560.84;;;-4.86;93.20
61109;BME280;46995;55.740;37.402;2024-01-11T00:58:49;97546.91;;;-4.82;92.65
61109;BME280;46995;55.740;37.402;2024-01-11T01:01:15;97539.91;;;-4.80;92.96
61109;BME280;46995;55.740;37.402;2024-01-11T01:03:40;97535.50;;;-4.78;92.89
61109;BME280;46995;55.740;37.402;2024-01-11T01:06:06;97536.09;;;-4.73;92.70
61109;BME280;46995;55.740;37.402;2024-01-11T01:08:32;97524.59;;;-4.67;93.35
61109;BME280;46995;55.740;37.402;2024-01-11T01:10:58;97518.28;;;-4.61;92.91
61109;BME280;46995;55.740;37.402;2024-01-11T01:13:25;97503.38;;;-4.56;92.93
61109;BME280;46995;55.740;37.402;2024-01-11T01:15:50;97499.63;;;-4.51;92.85
61109;BME280;46995;55.740;37.402;2024-01-11T01:18:16;97494.28;;;-4.48;93.10
61109;BME280;46995;55.740;37.402;2024-01-11T01:20:42;97480.97;;;-4.40;92.52
61109;BME280;46995;55.740;37.402;2024-01-11T01:23:07;97463.50;;;-4.35;93.04
61109;BME280;46995;55.740;37.402;2024-01-11T01:25:33;97463.22;;;-4.31;92.94
61109;BME280;46995;55.740;37.402;2024-01-11T01:27:59;97465.44;;;-4.24;93.38
61109;BME280;46995;55.740;37.402;2024-01-11T01:30:26;97463.41;;;-4.19;93.46
61109;BME280;46995;55.740;37.402;2024-01-11T01:32:52;97438.00;;;-4.11;93.21
61109;BME280;46995;55.740;37.402;2024-01-11T01:35:18;97433.22;;;-4.03;93.23
61109;BME280;46995;55.740;37.402;2024-01-11T01:37:43;97421.59;;;-3.96;93.30
61109;BME280;46995;55.740;37.402;2024-01-11T01:40:09;97418.63;;;-3.90;93.29
61109;BME280;46995;55.740;37.402;2024-01-11T01:42:35;97415.69;;;-3.84;93.62
61109;BME280;46995;55.740;37.402;2024-01-11T01:45:01;97407.56;;;-3.78;93.87
61109;BME280;46995;55.740;37.402;2024-01-11T01:47:28;97397.03;;;-3.75;93.30
61109;BME280;46995;55.740;37.402;2024-01-11T01:49:54;97395.00;;;-3.70;94.14
61109;BME280;46995;55.740;37.402;2024-01-11T01:52:20;97391.31;;;-3.66;93.40
61109;BME280;46995;55.740;37.402;2024-01-11T01:54:47;97390.22;;;-3.62;93.86
61109;BME280;46995;55.740;37.402;2024-01-11T01:57:13;97374.44;;;-3.57;93.89
61109;BME280;46995;55.740;37.402;2024-01-11T01:59:39;97372.47;;;-3.54;94.11
61109;BME280;46995;55.740;37.402;2024-01-11T02:02:05;97359.38;;;-3.51;93.81
61109;BME280;46995;55.740;37.402;2024-01-11T02:04:31;97356.69;;;-3.49;93.75
61109;BME280;46995;55.740;37.402;2024-01-11T02:06:57;97357.44;;;-3.47;93.14
61109;BME280;46995;55.740;37.402;2024-01-11T02:09:23;97346.28;;;-3.48;94.10
61109;BME280;46995;55.740;37.402;2024-01-11T02:11:50;97331.72;;;-3.49;94.22
61109;BME280;46995;55.740;37.402;2024-01-11T02:14:17;97326.38;;;-3.46;93.84
61109;BME280;46995;55.740;37.402;2024-01-11T02:16:42;97333.81;;;-3.41;93.69
61109;BME280;46995;55.740;37.402;2024-01-11T02:19:08;97317.22;;;-3.37;94.03
61109;BME280;46995;55.740;37.402;2024-01-11T02:21:38;97304.91;;;-3.33;93.75
61109;BME280;46995;55.740;37.402;2024-01-11T02:24:03;97299.44;;;-3.29;93.67
61109;BME280;46995;55.740;37.402;2024-01-11T02:26:29;97291.31;;;-3.23;93.17
61109;BME280;46995;55.740;37.402;2024-01-11T02:28:55;97296.16;;;-3.18;93.73
61109;BME280;46995;55.740;37.402;2024-01-11T02:31:21;97288.00;;;-3.12;93.90
61109;BME280;46995;55.740;37.402;2024-01-11T02:33:47;97281.63;;;-3.07;94.13
61109;BME280;46995;55.740;37.402;2024-01-11T02:36:13;97270.88;;;-3.01;93.85
61109;BME280;46995;55.740;37.402;2024-01-11T02:38:38;97262.81;;;-2.96;94.12
61109;BME280;46995;55.740;37.402;2024-01-11T02:41:06;97256.41;;;-2.90;93.78
61109;BME280;46995;55.740;37.402;2024-01-11T02:43:33;97252.50;;;-2.83;93.64
61109;BME280;46995;55.740;37.402;2024-01-11T02:46:03;97246.06;;;-2.78;93.79
61109;BME280;46995;55.740;37.402;2024-01-11T02:48:29;97239.66;;;-2.72;93.88
61109;BME280;46995;55.740;37.402;2024-01-11T02:50:58;97241.91;;;-2.68;93.88
61109;BME280;46995;55.740;37.402;2024-01-11T02:53:24;97236.31;;;-2.62;94.09
61109;BME280;46995;55.740;37.402;2024-01-11T02:55:50;97229.09;;;-2.57;93.95
61109;BME280;46995;55.740;37.402;2024-01-11T02:58:15;97228.63;;;-2.50;94.13
61109;BME280;46995;55.740;37.402;2024-01-11T03:00:41;97223.97;;;-2.45;94.22
61109;BME280;46995;55.740;37.402;2024-01-11T03:03:07;97208.94;;;-2.40;94.40
61109;BME280;46995;55.740;37.402;2024-01-11T03:05:32;97207.69;;;-2.35;94.47
61109;BME280;46995;55.740;37.402;2024-01-11T03:07:58;97207.34;;;-2.30;94.36
61109;BME280;46995;55.740;37.402;2024-01-11T03:10:24;97203.50;;;-2.25;94.13
61109;BME280;46995;55.740;37.402;2024-01-11T03:12:50;97198.72;;;-2.18;94.18
61109;BME280;46995;55.740;37.402;2024-01-11T03:15:16;97194.06;;;-2.13;94.42
61109;BME280;46995;55.740;37.402;2024-01-11T03:17:41;97187.72;;;-2.09;93.77
61109;BME280;46995;55.740;37.402;2024-01-11T03:20:07;97190.78;;;-2.04;94.19
61109;BME280;46995;55.740;37.402;2024-01-11T03:22:33;97178.34;;;-1.99;94.41
61109;BME280;46995;55.740;37.402;2024-01-11T03:24:59;97176.38;;;-1.95;93.93
61109;BME280;46995;55.740;37.402;2024-01-11T03:27:24;97167.34;;;-1.90;93.80
61109;BME280;46995;55.740;37.402;2024-01-11T03:29:50;97170.41;;;-1.85;94.02
61109;BME280;46995;55.740;37.402;2024-01-11T03:32:15;97159.84;;;-1.82;93.96
61109;BME280;46995;55.740;37.402;2024-01-11T03:34:41;97155.97;;;-1.76;94.42
61109;BME280;46995;55.740;37.402;2024-01-11T03:37:07;97152.34;;;-1.74;94.09
61109;BME280;46995;55.740;37.402;2024-01-11T03:39:33;97153.03;;;-1.72;94.53
61109;BME280;46995;55.740;37.402;2024-01-11T03:41:59;97136.38;;;-1.67;94.26
61109;BME280;46995;55.740;37.402;2024-01-11T03:44:25;97136.13;;;-1.64;94.82
61109;BME280;46995;55.740;37.402;2024-01-11T03:46:50;97146.22;;;-1.61;94.66
61109;BME280;46995;55.740;37.402;2024-01-11T03:49:17;97130.50;;;-1.58;94.27
61109;BME280;46995;55.740;37.402;2024-01-11T03:51:43;97131.06;;;-1.55;94.70
61109;BME280;46995;55.740;37.402;2024-01-11T03:54:08;97124.84;;;-1.52;94.84
61109;BME280;46995;55.740;37.402;2024-01-11T03:56:37;97122.03;;;-1.49;94.36
61109;BME280;46995;55.740;37.402;2024-01-11T03:59:02;97129.53;;;-1.46;94.71
61109;BME280;46995;55.740;37.402;2024-01-11T04:01:28;97122.50;;;-1.44;94.81
61109;BME280;46995;55.740;37.402;2024-01-11T04:03:54;97125.78;;;-1.42;94.78
61109;BME280;46995;55.740;37.402;2024-01-11T04:06:20;97119.53;;;-1.40;94.75
61109;BME280;46995;55.740;37.402;2024-01-11T04:08:46;97121.19;;;-1.39;94.88
61109;BME280;46995;55.740;37.402;2024-01-11T04:11:12;97118.38;;;-1.36;94.69
61109;BME280;46995;55.740;37.402;2024-01-11T04:13:38;97109.56;;;-1.33;95.05
61109;BME280;46995;55.740;37.402;2024-01-11T04:16:05;97106.03;;;-1.32;94.72
61109;BME280;46995;55.740;37.402;2024-01-11T04:18:31;97118.03;;;-1.31;94.75
61109;BME280;46995;55.740;37.402;2024-01-11T04:20:56;97104.13;;;-1.30;94.89
61109;BME280;46995;55.740;37.402;2024-01-11T04:23:22;97102.25;;;-1.28;94.90
61109;BME280;46995;55.740;37.402;2024-01-11T04:25:48;97102.97;;;-1.26;94.84
61109;BME280;46995;55.740;37.402;2024-01-11T04:28:13;97091.66;;;-1.25;94.92
61109;BME280;46995;55.740;37.402;2024-01-11T04:30:39;97101.06;;;-1.24;94.59
61109;BME280;46995;55.740;37.402;2024-01-11T04:33:05;97098.25;;;-1.21;94.95
61109;BME280;46995;55.740;37.402;2024-01-11T04:35:30;97093.09;;;-1.21;94.86
61109;BME280;46995;55.740;37.402;2024-01-11T04:37:56;97089.53;;;-1.20;95.12
61109;BME280;46995;55.740;37.402;2024-01-11T04:40:22;97086.81;;;-1.18;95.11
61109;BME280;46995;55.740;37.402;2024-01-11T04:42:47;97095.31;;;-1.16;95.23
61109;BME280;46995;55.740;37.402;2024-01-11T04:45:13;97082.22;;;-1.15;95.14
61109;BME280;46995;55.740;37.402;2024-01-11T04:47:38;97078.69;;;-1.14;95.34
61109;BME280;46995;55.740;37.402;2024-01-11T04:50:04;97072.47;;;-1.11;95.36
61109;BME280;46995;55.740;37.402;2024-01-11T04:52:30;97069.72;;;-1.10;95.25
61109;BME280;46995;55.740;37.402;2024-01-11T04:54:56;97070.34;;;-1.06;95.45
61109;BME280;46995;55.740;37.402;2024-01-11T04:57:22;97064.06;;;-1.04;95.30
61109;BME280;46995;55.740;37.402;2024-01-11T04:59:51;97063.59;;;-0.98;95.07
61109;BME280;46995;55.740;37.402;2024-01-11T05:02:16;97063.38;;;-0.95;95.41
61109;BME280;46995;55.740;37.402;2024-01-11T05:04:42;97049.44;;;-0.94;95.47
61109;BME280;46995;55.740;37.402;2024-01-11T05:07:08;97052.75;;;-0.92;95.52
61109;BME280;46995;55.740;37.402;2024-01-11T05:09:33;97049.22;;;-0.91;95.71
61109;BME280;46995;55.740;37.402;2024-01-11T05:12:03;97048.50;;;-0.93;95.96
61109;BME280;46995;55.740;37.402;2024-01-11T05:14:30;97041.34;;;-0.89;95.88
61109;BME280;46995;55.740;37.402;2024-01-11T05:16:56;97031.53;;;-0.86;95.75
61109;BME280;46995;55.740;37.402;2024-01-11T05:19:22;97035.66;;;-0.83;96.02
61109;BME280;46995;55.740;37.402;2024-01-11T05:21:48;97035.41;;;-0.80;95.87
61109;BME280;46995;55.740;37.402;2024-01-11T05:24:13;97033.50;;;-0.78;95.96
61109;BME280;46995;55.740;37.402;2024-01-11T05:26:39;97027.00;;;-0.72;96.06
61109;BME280;46995;55.740;37.402;2024-01-11T05:29:04;97031.13;;;-0.70;96.04
61109;BME280;46995;55.740;37.402;2024-01-11T05:31:30;97020.66;;;-0.68;95.70
61109;BME280;46995;55.740;37.402;2024-01-11T05:33:57;97021.34;;;-0.66;95.81
61109;BME280;46995;55.740;37.402;2024-01-11T05:36:23;97021.09;;;-0.63;95.99
61109;BME280;46995;55.740;37.402;2024-01-11T05:38:49;97008.16;;;-0.63;96.19
61109;BME280;46995;55.740;37.402;2024-01-11T05:41:14;97013.06;;;-0.60;96.31
61109;BME280;46995;55.740;37.402;2024-01-11T05:43:42;97014.59;;;-0.58;95.96
61109;BME280;46995;55.740;37.402;2024-01-11T05:46:08;97006.69;;;-0.56;96.15
61109;BME280;46995;55.740;37.402;2024-01-11T05:48:34;97010.09;;;-0.56;96.09
61109;BME280;46995;55.740;37.402;2024-01-11T05:51:00;97004.09;;;-0.56;96.10
61109;BME280;46995;55.740;37.402;2024-01-11T05:53:28;97000.56;;;-0.55;96.06
61109;BME280;46995;55.740;37.402;2024-01-11T05:55:54;96996.31;;;-0.56;96.31
61109;BME280;46995;55.740;37.402;2024-01-11T05:58:20;97001.25;;;-0.53;96.07
61109;BME280;46995;55.740;37.402;2024-01-11T06:00:46;96992.41;;;-0.51;96.20
61109;BME280;46995;55.740;37.402;2024-01-11T06:03:12;96988.75;;;-0.48;96.17
61109;BME280;46995;55.740;37.402;2024-01-11T06:05:37;96986.72;;;-0.45;96.25
61109;BME280;46995;55.740;37.402;2024-01-11T06:08:03;96988.47;;;-0.45;96.48
61109;BME280;46995;55.740;37.402;2024-01-11T06:10:29;96984.94;;;-0.44;96.62
61109;BME280;46995;55.740;37.402;2024-01-11T06:12:56;96984.94;;;-0.44;96.28
61109;BME280;46995;55.740;37.402;2024-01-11T06:15:21;96975.41;;;-0.44;96.36
61109;BME280;46995;55.740;37.402;2024-01-11T06:17:47;96964.22;;;-0.44;96.69
61109;BME280;46995;55.740;37.402;2024-01-11T06:20:13;96978.13;;;-0.45;96.51
61109;BME280;46995;55.740;37.402;2024-01-11T06:22:38;96971.97;;;-0.44;96.46
61109;BME280;46995;55.740;37.402;2024-01-11T06:25:04;96968.56;;;-0.45;96.68
61109;BME280;46995;55.740;37.402;2024-01-11T06:27:30;96971.88;;;-0.43;96.65
61109;BME280;46995;55.740;37.402;2024-01-11T06:29:55;96971.88;;;-0.43;96.77
61109;BME280;46995;55.740;37.402;2024-01-11T06:32:21;96960.41;;;-0.40;96.34
61109;BME280;46995;55.740;37.402;2024-01-11T06:34:47;96952.75;;;-0.42;96.65
61109;BME280;46995;55.740;37.402;2024-01-11T06:37:12;96962.16;;;-0.40;96.61
61109;BME280;46995;55.740;37.402;2024-01-11T06:39:38;96955.22;;;-0.40;96.77
61109;BME280;46995;55.740;37.402;2024-01-11T06:42:04;96956.88;;;-0.39;96.51
61109;BME280;46995;55.740;37.402;2024-01-11T06:44:30;96960.16;;;-0.37;96.50
61109;BME280;46995;55.740;37.402;2024-01-11T06:46:56;96946.22;;;-0.36;96.63
61109;BME280;46995;55.740;37.402;2024-01-11T06:49:22;96965.09;;;-0.34;96.68
61109;BME280;46995;55.740;37.402;2024-01-11T06:51:47;96946.81;;;-0.32;96.43
61109;BME280;46995;55.740;37.402;2024-01-11T06:54:13;96953.50;;;-0.30;96.62
61109;BME280;46995;55.740;37.402;2024-01-11T06:56:39;96945.59;;;-0.28;96.77
61109;BME280;46995;55.740;37.402;2024-01-11T06:59:05;96942.06;;;-0.27;96.67
61109;BME280;46995;55.740;37.402;2024-01-11T07:01:32;96946.31;;;-0.26;96.62
61109;BME280;46995;55.740;37.402;2024-01-11T07:03:58;96944.50;;;-0.26;96.75
61109;BME280;46995;55.740;37.402;2024-01-11T07:06:24;96946.16;;;-0.25;96.76
61109;BME280;46995;55.740;37.402;2024-01-11T07:08:50;96944.50;;;-0.26;96.69
61109;BME280;46995;55.740;37.402;2024-01-11T07:14:12;96939.31;;;-0.26;96.75
61109;BME280;46995;55.740;37.402;2024-01-11T07:16:40;96934.13;;;-0.26;96.73
61109;BME280;46995;55.740;37.402;2024-01-11T07:19:06;96936.59;;;-0.24;96.90
61109;BME280;46995;55.740;37.402;2024-01-11T07:21:32;96931.53;;;-0.26;96.68
61109;BME280;46995;55.740;37.402;2024-01-11T07:24:00;96931.31;;;-0.23;96.88
61109;BME280;46995;55.740;37.402;2024-01-11T07:26:26;96933.19;;;-0.25;96.73
61109;BME280;46995;55.740;37.402;2024-01-11T07:28:52;96916.69;;;-0.24;96.79
61109;BME280;46995;55.740;37.402;2024-01-11T07:31:20;96915.88;;;-0.24;97.11
61109;BME280;46995;55.740;37.402;2024-01-11T07:33:45;96914.09;;;-0.24;96.60
61109;BME280;46995;55.740;37.402;2024-01-11T07:36:11;96907.03;;;-0.22;96.77
61109;BME280;46995;55.740;37.402;2024-01-11T07:38:37;96908.63;;;-0.21;96.84
61109;BME280;46995;55.740;37.402;2024-01-11T07:41:03;96904.16;;;-0.19;96.73
61109;BME280;46995;55.740;37.402;2024-01-11T07:43:28;96902.13;;;-0.15;96.94
61109;BME280;46995;55.740;37.402;2024-01-11T07:45:55;96893.50;;;-0.16;96.82
61109;BME280;46995;55.740;37.402;2024-01-11T07:48:23;96894.75;;;-0.10;96.92
61109;BME280;46995;55.740;37.402;2024-01-11T07:50:52;96896.56;;;-0.11;96.69
61109;BME280;46995;55.740;37.402;2024-01-11T07:53:18;96899.16;;;-0.11;96.81
61109;BME280;46995;55.740;37.402;2024-01-11T07:55:43;96888.50;;;-0.08;96.92
61109;BME280;46995;55.740;37.402;2024-01-11T07:58:13;96885.91;;;-0.08;97.16
61109;BME280;46995;55.740;37.402;2024-01-11T08:00:38;96878.41;;;-0.11;96.94
61109;BME280;46995;55.740;37.402;2024-01-11T08:03:05;96884.25;;;-0.09;97.02
61109;BME280;46995;55.740;37.402;2024-01-11T08:05:31;96874.84;;;-0.10;97.18
61109;BME280;46995;55.740;37.402;2024-01-11T08:07:56;96870.47;;;-0.09;97.07
61109;BME280;46995;55.740;37.402;2024-01-11T08:10:27;96872.94;;;-0.08;97.14
61109;BME280;46995;55.740;37.402;2024-01-11T08:12:52;96870.34;;;-0.08;97.02
61109;BME280;46995;55.740;37.402;2024-01-11T08:15:18;96867.75;;;-0.08;97.23
61109;BME280;46995;55.740;37.402;2024-01-11T08:17:44;96859.28;;;-0.10;97.08
61109;BME280;46995;55.740;37.402;2024-01-11T08:20:10;96868.97;;;-0.12;97.13
61109;BME280;46995;55.740;37.402;2024-01-11T08:22:40;96854.34;;;-0.13;97.09
61109;BME280;46995;55.740;37.402;2024-01-11T08:25:06;96860.50;;;-0.14;96.95
61109;BME280;46995;55.740;37.402;2024-01-11T08:27:32;96852.47;;;-0.11;97.30
61109;BME280;46995;55.740;37.402;2024-01-11T08:29:58;96856.56;;;-0.08;97.08
61109;BME280;46995;55.740;37.402;2024-01-11T08:32:26;96852.06;;;-0.06;96.80
61109;BME280;46995;55.740;37.402;2024-01-11T08:34:52;96847.81;;;-0.07;96.97
61109;BME280;46995;55.740;37.402;2024-01-11T08:37:17;96839.09;;;-0.06;96.86
61109;BME280;46995;55.740;37.402;2024-01-11T08:39:45;96847.00;;;-0.08;97.19
61109;BME280;46995;55.740;37.402;2024-01-11T08:42:11;96846.31;;;-0.10;96.93
61109;BME280;46995;55.740;37.402;2024-01-11T08:44:41;96848.06;;;-0.10;96.95
61109;BME280;46995;55.740;37.402;2024-01-11T08:47:06;96849.72;;;-0.09;97.11
61109;BME280;46995;55.740;37.402;2024-01-11T08:49:32;96850.13;;;-0.14;97.16
61109;BME280;46995;55.740;37.402;2024-01-11T08:51:58;96840.69;;;-0.15;97.27
61109;BME280;46995;55.740;37.402;2024-01-11T08:54:23;96839.75;;;-0.14;97.26
61109;BME280;46995;55.740;37.402;2024-01-11T08:56:49;96838.09;;;-0.15;97.25
61109;BME280;46995;55.740;37.402;2024-01-11T08:59:15;96847.22;;;-0.20;97.28
61109;BME280;46995;55.740;37.402;2024-01-11T09:01:41;96910.56;;;-0.23;97.51
61109;BME280;46995;55.740;37.402;2024-01-11T09:04:31;96915.44;;;-0.29;97.75
61109;BME280;46995;55.740;37.402;2024-01-11T09:06:59;96938.03;;;-0.41;97.94
61109;BME280;46995;55.740;37.402;2024-01-11T09:09:25;96932.66;;;-0.49;98.05
61109;BME280;46995;55.740;37.402;2024-01-11T09:11:51;96951.44;;;-0.57;98.24
61109;BME280;46995;55.740;37.402;2024-01-11T09:14:18;96955.59;;;-0.65;98.51
61109;BME280;46995;55.740;37.402;2024-01-11T09:16:43;96948.34;;;-0.71;98.61
61109;BME280;46995;55.740;37.402;2024-01-11T09:19:11;96934.03;;;-0.87;98.51
61109;BME280;46995;55.740;37.402;2024-01-11T09:21:37;96938.06;;;-0.94;98.64
61109;BME280;46995;55.740;37.402;2024-01-11T09:24:02;96938.59;;;-1.00;98.87
61109;BME280;46995;55.740;37.402;2024-01-11T09:26:28;96930.81;;;-1.00;99.03
61109;BME280;46995;55.740;37.402;2024-01-11T09:28:54;96936.00;;;-1.00;98.94
61109;BME280;46995;55.740;37.402;2024-01-11T09:31:19;96954.59;;;-0.95;98.85
61109;BME280;46995;55.740;37.402;2024-01-11T09:33:46;96943.25;;;-0.94;99.23
61109;BME280;46995;55.740;37.402;2024-01-11T09:36:13;96946.56;;;-0.92;99.08
61109;BME280;46995;55.740;37.402;2024-01-11T09:38:40;96958.94;;;-0.95;99.13
61109;BME280;46995;55.740;37.402;2024-01-11T09:43:33;96975.78;;;-1.01;99.16
61109;BME280;46995;55.740;37.402;2024-01-11T09:45:59;96971.09;;;-1.07;99.11
61109;BME280;46995;55.740;37.402;2024-01-11T09:48:26;96971.59;;;-1.13;99.24
61109;BME280;46995;55.740;37.402;2024-01-11T09:50:52;96999.53;;;-1.27;99.36
61109;BME280;46995;55.740;37.402;2024-01-11T09:53:19;96988.38;;;-1.39;99.31
61109;BME280;46995;55.740;37.402;2024-01-11T09:55:48;96987.69;;;-1.52;99.63
61109;BME280;46995;55.740;37.402;2024-01-11T09:58:14;97008.72;;;-1.57;99.66
61109;BME280;46995;55.740;37.402;2024-01-11T10:00:40;97005.69;;;-1.62;99.97
61109;BME280;46995;55.740;37.402;2024-01-11T10:03:06;97001.59;;;-1.64;99.72
61109;BME280;46995;55.740;37.402;2024-01-11T10:05:32;97022.53;;;-1.79;99.76
61109;BME280;46995;55.740;37.402;2024-01-11T10:07:59;97039.69;;;-1.89;99.93
61109;BME280;46995;55.740;37.402;2024-01-11T10:10:25;97042.03;;;-1.97;100.00
61109;BME280;46995;55.740;37.402;2024-01-11T10:12:51;97051.16;;;-2.04;100.00
61109;BME280;46995;55.740;37.402;2024-01-11T10:15:17;97052.72;;;-2.01;100.00
61109;BME280;46995;55.740;37.402;2024-01-11T10:17:43;97062.22;;;-2.02;99.87
61109;BME280;46995;55.740;37.402;2024-01-11T10:20:10;97067.16;;;-2.10;99.83
61109;BME280;46995;55.740;37.402;2024-01-11T10:22:36;97065.09;;;-2.29;100.00
61109;BME280;46995;55.740;37.402;2024-01-11T10:25:08;97077.28;;;-2.42;99.74
61109;BME280;46995;55.740;37.402;2024-01-11T10:27:36;97077.34;;;-2.54;100.00
61109;BME280;46995;55.740;37.402;2024-01-11T10:30:02;97101.94;;;-2.73;99.68
61109;BME280;46995;55.740;37.402;2024-01-11T10:32:29;97098.38;;;-2.83;99.68
61109;BME280;46995;55.740;37.402;2024-01-11T10:34:54;97106.66;;;-2.90;99.82
61109;BME280;46995;55.740;37.402;2024-01-11T10:37:21;97118.16;;;-3.07;99.63
61109;BME280;46995;55.740;37.402;2024-01-11T10:39:48;97123.88;;;-3.15;99.55
61109;BME280;46995;55.740;37.402;2024-01-11T10:42:17;97127.72;;;-3.20;99.81
61109;BME280;46995;55.740;37.402;2024-01-11T10:44:48;97135.88;;;-3.26;100.00
61109;BME280;46995;55.740;37.402;2024-01-11T10:47:14;97140.53;;;-3.31;100.00
61109;BME280;46995;55.740;37.402;2024-01-11T10:49:40;97148.59;;;-3.36;99.57
61109;BME280;46995;55.740;37.402;2024-01-11T10:52:09;97184.81;;;-3.63;99.62
61109;BME280;46995;55.740;37.402;2024-01-11T10:54:37;97181.25;;;-3.87;100.00
61109;BME280;46995;55.740;37.402;2024-01-11T10:57:06;97194.75;;;-4.09;99.76
61109;BME280;46995;55.740;37.402;2024-01-11T10:59:33;97185.53;;;-4.25;99.42
61109;BME280;46995;55.740;37.402;2024-01-11T11:02:03;97203.94;;;-4.32;99.33
61109;BME280;46995;55.740;37.402;2024-01-11T11:04:31;97199.41;;;-4.55;99.28
61109;BME280;46995;55.740;37.402;2024-01-11T11:06:58;97212.72;;;-4.75;99.22
61109;BME280;46995;55.740;37.402;2024-01-11T11:09:26;97204.56;;;-4.82;99.44
61109;BME280;46995;55.740;37.402;2024-01-11T11:11:53;97218.16;;;-4.94;99.10
61109;BME280;46995;55.740;37.402;2024-01-11T11:14:21;97212.75;;;-5.03;99.81
61109;BME280;46995;55.740;37.402;2024-01-11T11:16:47;97216.00;;;-5.14;99.31
61109;BME280;46995;55.740;37.402;2024-01-11T11:19:13;97238.13;;;-5.26;99.73
61109;BME280;46995;55.740;37.402;2024-01-11T11:21:43;97237.19;;;-5.39;99.49
61109;BME280;46995;55.740;37.402;2024-01-11T11:24:09;97249.88;;;-5.50;99.28
61109;BME280;46995;55.740;37.402;2024-01-11T11:26:36;97250.78;;;-5.51;99.08
61109;BME280;46995;55.740;37.402;2024-01-11T11:29:03;97259.22;;;-5.49;98.93
61109;BME280;46995;55.740;37.402;2024-01-11T11:31:39;97252.25;;;-5.47;99.29
61109;BME280;46995;55.740;37.402;2024-01-11T11:34:07;97258.13;;;-5.45;99.18
61109;BME280;46995;55.740;37.402;2024-01-11T11:36:33;97264.28;;;-5.47;99.15
61109;BME280;46995;55.740;37.402;2024-01-11T11:38:59;97282.72;;;-5.55;98.58
61109;BME280;46995;55.740;37.402;2024-01-11T11:41:26;97294.56;;;-5.52;98.89
61109;BME280;46995;55.740;37.402;2024-01-11T11:43:52;97293.72;;;-5.53;99.02
61109;BME280;46995;55.740;37.402;2024-01-11T11:46:17;97298.50;;;-5.61;98.92
61109;BME280;46995;55.740;37.402;2024-01-11T11:48:51;97301.56;;;-5.70;99.42
61109;BME280;46995;55.740;37.402;2024-01-11T11:51:21;97314.94;;;-5.79;98.60
61109;BME280;46995;55.740;37.402;2024-01-11T11:53:47;97331.13;;;-5.77;98.83
61109;BME280;46995;55.740;37.402;2024-01-11T11:56:16;97337.75;;;-5.73;98.63
61109;BME280;46995;55.740;37.402;2024-01-11T11:58:42;97339.97;;;-5.67;99.41
61109;BME280;46995;55.740;37.402;2024-01-11T12:01:09;97344.56;;;-5.72;98.90
61109;BME280;46995;55.740;37.402;2024-01-11T12:03:38;97357.09;;;-5.82;99.02
61109;BME280;46995;55.740;37.402;2024-01-11T12:06:07;97348.84;;;-5.87;98.38
61109;BME280;46995;55.740;37.402;2024-01-11T12:08:34;97359.28;;;-5.90;98.70
61109;BME280;46995;55.740;37.402;2024-01-11T12:11:00;97369.25;;;-5.85;98.68
61109;BME280;46995;55.740;37.402;2024-01-11T12:13:26;97383.97;;;-5.87;98.74
61109;BME280;46995;55.740;37.402;2024-01-11T12:15:51;97365.75;;;-5.98;98.24
61109;BME280;46995;55.740;37.402;2024-01-11T12:18:18;97371.41;;;-6.08;98.51
61109;BME280;46995;55.740;37.402;2024-01-11T12:20:44;97376.88;;;-6.14;97.92
61109;BME280;46995;55.740;37.402;2024-01-11T12:23:10;97375.19;;;-6.15;98.13
61109;BME280;46995;55.740;37.402;2024-01-11T12:25:35;97373.38;;;-6.13;97.93
61109;BME280;46995;55.740;37.402;2024-01-11T12:28:01;97389.69;;;-6.14;97.67
61109;BME280;46995;55.740;37.402;2024-01-11T12:30:27;97398.31;;;-6.15;97.98
61109;BME280;46995;55.740;37.402;2024-01-11T12:32:53;97405.00;;;-6.28;97.64
61109;BME280;46995;55.740;37.402;2024-01-11T12:35:20;97421.22;;;-6.43;97.56
61109;BME280;46995;55.740;37.402;2024-01-11T12:37:55;97428.38;;;-6.65;97.38
61109;BME280;46995;55.740;37.402;2024-01-11T12:40:23;97428.41;;;-6.82;96.95
61109;BME280;46995;55.740;37.402;2024-01-11T12:42:48;97446.38;;;-7.00;96.71
61109;BME280;46995;55.740;37.402;2024-01-11T12:45:18;97465.69;;;-7.10;97.54
61109;BME280;46995;55.740;37.402;2024-01-11T12:47:43;97449.25;;;-7.23;97.13
61109;BME280;46995;55.740;37.402;2024-01-11T12:50:09;97464.91;;;-7.29;97.23